Wilmington, North Carolina
Current Conditions -  °F | °C
As of 3:53 AM on Thursday 23 Oct 2014 (Local Time) from KILM Reporting Station
Clear Clear  
Wind Chill:   Ceiling: Unl
Heat Index:   Visibility: 10mi
Dew Point:   Wind: 9mph
Humidity: 80%   Direction: 320°NW
Pressure: 30"   Gusts: NA
Location:  34.24°N, 77.94°W
Report Text: KILM 230753Z AUTO 32008KT 10SM CLR 09/06 A3000 RMK AO2 SLP158 T00940061
Loading
Personal Weather Stations






























Interactive Weather Map
Tropical Storm Tracking
New forecast layout! Learn more

10-Day Weather Forecast

Advertisements
Track Severe Weather on mobile